createdAt,value
2023-02-03T00:02:14.448Z,2.87
2023-02-03T00:05:17.242Z,2.90
2023-02-03T00:08:22.403Z,2.80
2023-02-03T00:11:25.349Z,3.17
2023-02-03T00:14:28.024Z,2.77
2023-02-03T00:17:30.730Z,2.90
2023-02-03T00:20:33.742Z,3.20
2023-02-03T00:23:37.746Z,3.20
2023-02-03T00:26:43.429Z,3.57
2023-02-03T00:29:46.124Z,3.17
2023-02-03T00:32:48.778Z,2.83
2023-02-03T00:35:51.428Z,3.30
2023-02-03T00:38:55.728Z,3.20
2023-02-03T00:41:58.415Z,3.07
2023-02-03T00:45:01.077Z,2.80
2023-02-03T00:48:04.045Z,3.27
2023-02-03T00:51:07.168Z,2.87
2023-02-03T00:54:11.352Z,2.87
2023-02-03T00:57:14.145Z,3.30
2023-02-03T01:00:17.808Z,3.00
2023-02-03T01:03:20.723Z,2.90
2023-02-03T01:06:24.034Z,2.80
2023-02-03T01:09:29.034Z,2.83
2023-02-03T01:12:32.088Z,2.97
2023-02-03T01:15:34.839Z,2.50
2023-02-03T01:18:37.881Z,2.70
2023-02-03T01:21:40.571Z,2.83
2023-02-03T01:24:44.545Z,2.63
2023-02-03T01:27:47.255Z,2.47
2023-02-03T01:30:50.134Z,2.37
2023-02-03T01:33:54.291Z,2.50
2023-02-03T01:36:56.947Z,2.53
2023-02-03T01:40:01.086Z,2.57
2023-02-03T01:43:03.778Z,2.70
2023-02-03T01:46:24.729Z,2.40
2023-02-03T01:49:37.988Z,2.90
2023-02-03T01:52:43.064Z,2.70
2023-02-03T01:55:49.714Z,2.50
2023-02-03T01:58:52.858Z,2.77
2023-02-03T02:01:58.895Z,2.60
2023-02-03T02:05:17.223Z,2.60
2023-02-03T02:08:22.391Z,2.60
2023-02-03T02:11:25.035Z,2.40
2023-02-03T02:14:27.812Z,2.67
2023-02-03T02:18:02.902Z,2.60
2023-02-03T02:21:32.818Z,2.60
2023-02-03T02:25:08.901Z,2.20
2023-02-03T02:28:52.268Z,2.33
2023-02-03T02:32:24.722Z,2.53
2023-02-03T02:35:41.233Z,2.63
2023-02-03T02:38:57.546Z,2.00
2023-02-03T02:42:08.675Z,2.33
2023-02-03T02:45:20.591Z,2.40
2023-02-03T02:48:33.806Z,2.40
2023-02-03T02:51:39.286Z,2.20
2023-02-03T02:54:48.055Z,2.30
2023-02-03T02:58:03.484Z,2.20
2023-02-03T03:01:08.900Z,1.80
2023-02-03T03:04:19.236Z,1.90
2023-02-03T03:07:27.169Z,1.83
2023-02-03T03:10:33.480Z,1.90
2023-02-03T03:13:40.624Z,1.80
2023-02-03T03:16:49.262Z,1.90
2023-02-03T03:20:07.801Z,1.90
2023-02-03T03:23:17.157Z,1.70
2023-02-03T03:26:27.919Z,1.90
2023-02-03T03:29:35.259Z,1.90
2023-02-03T03:32:39.235Z,1.87
2023-02-03T03:35:50.092Z,2.10
2023-02-03T03:39:03.548Z,2.10
2023-02-03T03:42:11.544Z,1.87
2023-02-03T03:45:20.914Z,1.70
2023-02-03T03:48:30.159Z,1.60
2023-02-03T03:51:38.247Z,1.70
2023-02-03T03:54:43.705Z,1.60
2023-02-03T03:57:54.447Z,1.70
2023-02-03T04:01:02.236Z,1.50
2023-02-03T04:04:12.818Z,1.73
2023-02-03T04:07:17.886Z,1.30
2023-02-03T04:10:32.070Z,1.20
2023-02-03T04:13:34.864Z,1.50
2023-02-03T04:16:39.190Z,1.30
2023-02-03T04:19:41.937Z,1.60
2023-02-03T04:22:48.184Z,1.20
2023-02-03T04:25:50.861Z,1.50
2023-02-03T04:28:53.583Z,1.30
2023-02-03T04:31:56.424Z,1.23
2023-02-03T04:34:59.321Z,1.37
2023-02-03T04:38:03.361Z,1.03
2023-02-03T04:41:06.196Z,1.20
2023-02-03T04:44:10.525Z,0.90
2023-02-03T04:47:13.396Z,1.07
2023-02-03T04:50:16.489Z,1.00
2023-02-03T04:53:20.500Z,1.00
2023-02-03T04:56:23.311Z,1.10
2023-02-03T04:59:26.050Z,1.27
2023-02-03T05:02:28.737Z,1.30
2023-02-03T05:05:31.926Z,1.10
2023-02-03T05:08:43.685Z,1.40
2023-02-03T05:11:46.413Z,1.33
2023-02-03T05:14:51.606Z,1.40
2023-02-03T05:17:54.315Z,1.67
2023-02-03T05:20:57.324Z,1.70
2023-02-03T05:24:07.787Z,1.70
2023-02-03T05:27:10.632Z,1.40
2023-02-03T05:30:13.939Z,1.80
2023-02-03T05:33:16.806Z,1.80
2023-02-03T05:36:21.902Z,1.70
2023-02-03T05:39:27.675Z,2.03
2023-02-03T05:42:29.382Z,1.90
2023-02-03T05:45:33.262Z,1.50
2023-02-03T05:48:36.437Z,1.83
2023-02-03T05:51:41.873Z,1.80
2023-02-03T05:54:45.962Z,1.90
2023-02-03T05:57:48.668Z,1.83
2023-02-03T06:00:56.984Z,1.90
2023-02-03T06:04:00.613Z,2.30
2023-02-03T06:07:03.450Z,2.03
2023-02-03T06:10:10.692Z,2.10
2023-02-03T06:13:15.533Z,2.60
2023-02-03T06:16:18.237Z,2.03
2023-02-03T06:19:23.935Z,1.93
2023-02-03T06:22:29.664Z,1.87
2023-02-03T06:25:37.043Z,2.10
2023-02-03T06:28:40.734Z,1.93
2023-02-03T06:31:43.543Z,1.83
2023-02-03T06:34:46.304Z,2.00
2023-02-03T06:37:49.402Z,1.93
2023-02-03T06:40:53.476Z,1.90
2023-02-03T06:43:59.325Z,1.87
2023-02-03T06:47:02.977Z,1.90
2023-02-03T06:50:06.059Z,1.73
2023-02-03T06:53:08.742Z,1.90
2023-02-03T06:56:12.737Z,2.17
2023-02-03T06:59:15.399Z,1.80
2023-02-03T07:02:19.362Z,1.80
2023-02-03T07:05:25.969Z,2.40
2023-02-03T07:08:30.895Z,1.80
2023-02-03T07:11:44.120Z,2.03
2023-02-03T07:14:46.760Z,2.10
2023-02-03T07:17:54.432Z,2.10
2023-02-03T07:21:00.371Z,2.50
2023-02-03T07:24:06.708Z,2.37
2023-02-03T07:27:10.734Z,2.20
2023-02-03T07:30:14.525Z,2.27
2023-02-03T07:33:17.434Z,1.97
2023-02-03T07:36:20.099Z,2.37
2023-02-03T07:39:22.783Z,2.20
2023-02-03T07:42:26.827Z,2.37
2023-02-03T07:45:29.693Z,2.00
2023-02-03T07:48:32.450Z,1.90
2023-02-03T07:51:35.146Z,2.00
2023-02-03T07:54:40.474Z,2.03
2023-02-03T07:57:45.325Z,1.80
2023-02-03T08:00:47.977Z,2.00
2023-02-03T08:03:55.120Z,1.80
2023-02-03T08:06:58.013Z,1.80
2023-02-03T08:10:04.910Z,2.00
2023-02-03T08:13:11.987Z,1.63
2023-02-03T08:16:14.769Z,1.33
2023-02-03T08:19:17.470Z,1.40
2023-02-03T08:22:20.352Z,1.70
2023-02-03T08:25:23.026Z,1.70
2023-02-03T08:28:27.135Z,1.40
2023-02-03T08:31:29.876Z,2.00
2023-02-03T08:34:34.219Z,1.60
2023-02-03T08:37:39.137Z,1.80
2023-02-03T08:40:41.924Z,1.60
2023-02-03T08:43:46.362Z,1.73
2023-02-03T08:46:50.977Z,1.50
2023-02-03T08:49:56.709Z,1.43
2023-02-03T08:52:59.384Z,1.60
2023-02-03T08:56:05.886Z,1.90
2023-02-03T08:59:10.016Z,1.60
2023-02-03T09:02:16.515Z,1.50
2023-02-03T09:05:19.457Z,1.87
2023-02-03T09:08:22.113Z,1.83
2023-02-03T09:11:35.290Z,2.73
2023-02-03T09:14:39.626Z,1.60
2023-02-03T09:17:42.380Z,2.90
2023-02-03T09:20:52.850Z,1.40
2023-02-03T09:24:01.913Z,1.67
2023-02-03T09:27:04.645Z,1.20
2023-02-03T09:30:10.111Z,1.37
2023-02-03T09:33:12.789Z,1.53
2023-02-03T09:36:25.882Z,1.70
2023-02-03T09:39:29.504Z,1.60
2023-02-03T09:43:13.392Z,1.40
2023-02-03T09:46:21.841Z,1.50
2023-02-03T09:49:28.495Z,1.87
2023-02-03T09:52:35.081Z,1.17
2023-02-03T09:55:47.296Z,1.20
2023-02-03T09:58:50.083Z,1.40
2023-02-03T10:02:03.463Z,1.27
2023-02-03T10:05:24.214Z,1.20
2023-02-03T10:08:44.648Z,1.10
2023-02-03T10:12:15.385Z,1.10
2023-02-03T10:15:51.620Z,1.03
2023-02-03T10:19:02.076Z,1.07
2023-02-03T10:22:09.232Z,0.90
2023-02-03T10:25:24.800Z,1.17
2023-02-03T10:28:32.151Z,1.07
2023-02-03T10:31:37.408Z,1.20
2023-02-03T10:34:49.386Z,1.87
2023-02-03T10:37:58.101Z,5.33
2023-02-03T10:41:05.312Z,1.73
2023-02-03T10:44:11.768Z,3.17
2023-02-03T10:47:28.085Z,1.13
2023-02-03T10:50:32.336Z,6.73
2023-02-03T10:53:37.705Z,3.20
2023-02-03T10:56:41.627Z,1.50
2023-02-03T10:59:47.396Z,0.73
2023-02-03T11:03:07.815Z,1.00
2023-02-03T11:06:14.649Z,1.77
2023-02-03T11:09:29.594Z,0.90
2023-02-03T11:12:32.455Z,0.90
2023-02-03T11:15:35.894Z,0.73
2023-02-03T11:18:53.258Z,1.10
2023-02-03T11:22:01.102Z,0.87
2023-02-03T11:25:06.995Z,0.43
2023-02-03T11:28:14.505Z,0.77
2023-02-03T11:31:21.640Z,0.80
2023-02-03T11:34:28.616Z,0.97
2023-02-03T11:37:36.465Z,0.90
2023-02-03T11:40:41.172Z,0.73
2023-02-03T11:43:44.013Z,0.90
2023-02-03T11:46:49.452Z,0.70
2023-02-03T11:50:07.225Z,1.07
2023-02-03T11:53:51.305Z,1.00
2023-02-03T11:57:22.207Z,1.20
2023-02-03T12:00:34.212Z,0.90
2023-02-03T12:04:05.018Z,0.60
2023-02-03T12:07:29.973Z,0.80
2023-02-03T12:10:50.001Z,0.80
2023-02-03T12:14:10.731Z,0.53
2023-02-03T12:17:31.651Z,0.63
2023-02-03T12:20:45.376Z,0.60
2023-02-03T12:23:57.207Z,0.53
2023-02-03T12:27:20.180Z,0.90
2023-02-03T12:30:34.847Z,0.53
2023-02-03T12:33:43.469Z,0.50
2023-02-03T12:36:54.554Z,0.67
2023-02-03T12:40:01.947Z,0.50
2023-02-03T12:43:24.503Z,0.50
2023-02-03T12:46:30.848Z,0.70
2023-02-03T12:49:42.521Z,0.50
2023-02-03T12:52:50.973Z,0.80
2023-02-03T12:56:01.874Z,0.60
2023-02-03T12:59:11.869Z,1.40
2023-02-03T13:02:22.278Z,1.53
2023-02-03T13:05:31.372Z,0.60
2023-02-03T13:08:37.322Z,0.77
2023-02-03T13:11:49.094Z,0.93
2023-02-03T13:14:59.110Z,0.60
2023-02-03T13:18:10.852Z,0.70
2023-02-03T13:21:13.870Z,0.70
2023-02-03T13:24:17.533Z,0.90
2023-02-03T13:27:37.622Z,0.60
2023-02-03T13:30:56.847Z,0.60
2023-02-03T13:34:15.588Z,0.70
2023-02-03T13:37:33.795Z,0.80
2023-02-03T13:40:48.918Z,0.60
2023-02-03T13:43:54.293Z,0.60
2023-02-03T13:47:00.850Z,0.50
2023-02-03T13:50:07.273Z,0.40
2023-02-03T13:53:18.575Z,0.40
2023-02-03T13:56:23.796Z,0.50
2023-02-03T13:59:40.418Z,0.70
2023-02-03T14:02:54.191Z,0.80
2023-02-03T14:05:58.281Z,0.30
2023-02-03T14:09:01.253Z,0.60
2023-02-03T14:12:35.867Z,0.50
2023-02-03T14:15:39.681Z,0.70
2023-02-03T14:18:50.005Z,0.50
2023-02-03T14:21:55.690Z,0.57
2023-02-03T14:25:05.912Z,0.57
2023-02-03T14:28:11.822Z,0.57
2023-02-03T14:31:23.889Z,0.60
2023-02-03T14:34:32.233Z,0.60
2023-02-03T14:37:36.082Z,0.63
2023-02-03T14:40:48.403Z,0.50
2023-02-03T14:43:56.899Z,0.67
2023-02-03T14:47:20.976Z,0.40
2023-02-03T14:50:38.772Z,0.50
2023-02-03T14:54:00.611Z,0.73
2023-02-03T14:57:19.723Z,1.93
2023-02-03T15:00:34.642Z,1.37
2023-02-03T15:03:41.976Z,0.87
2023-02-03T15:06:47.552Z,1.10
2023-02-03T15:09:52.387Z,1.37
2023-02-03T15:12:58.089Z,1.00
2023-02-03T15:16:04.170Z,5.13
2023-02-03T15:19:17.885Z,13.27
2023-02-03T15:22:24.315Z,3.93
2023-02-03T15:25:32.946Z,0.83
2023-02-03T15:28:35.686Z,0.80
2023-02-03T15:31:41.146Z,0.90
2023-02-03T15:34:45.911Z,0.70
2023-02-03T15:37:53.687Z,0.93
2023-02-03T15:40:58.952Z,0.70
2023-02-03T15:44:08.714Z,0.80
2023-02-03T15:47:23.410Z,0.83
2023-02-03T15:50:31.819Z,0.70
2023-02-03T15:53:47.648Z,0.50
2023-02-03T15:56:56.724Z,1.13
2023-02-03T16:00:02.151Z,0.60
2023-02-03T16:03:16.698Z,0.60
2023-02-03T16:06:23.195Z,0.70
2023-02-03T16:09:31.170Z,0.80
2023-02-03T16:12:35.058Z,0.73
2023-02-03T16:15:38.075Z,1.20
2023-02-03T16:18:52.334Z,1.20
2023-02-03T16:22:00.867Z,1.30
2023-02-03T16:25:16.165Z,1.43
2023-02-03T16:28:37.335Z,1.23
2023-02-03T16:32:10.372Z,1.10
2023-02-03T16:35:30.867Z,1.00
2023-02-03T16:38:54.330Z,1.20
2023-02-03T16:42:16.642Z,1.30
2023-02-03T16:45:37.293Z,1.80
2023-02-03T16:48:58.003Z,1.33
2023-02-03T16:52:01.597Z,1.43
2023-02-03T16:55:04.330Z,1.10
2023-02-03T16:58:08.340Z,0.80
2023-02-03T17:01:14.436Z,1.00
2023-02-03T17:04:17.235Z,1.00
2023-02-03T17:07:19.973Z,0.93
2023-02-03T17:10:22.677Z,0.87
2023-02-03T17:13:26.721Z,1.00
2023-02-03T17:16:30.453Z,1.00
2023-02-03T17:19:33.850Z,0.90
2023-02-03T17:22:36.746Z,0.90
2023-02-03T17:25:40.649Z,0.80
2023-02-03T17:28:45.028Z,0.90
2023-02-03T17:31:47.768Z,1.17
2023-02-03T17:34:50.614Z,0.80
2023-02-03T17:37:54.394Z,0.73
2023-02-03T17:54:27.238Z,1.00
2023-02-03T17:57:30.317Z,0.93
2023-02-03T18:00:34.876Z,0.97
2023-02-03T18:03:37.552Z,1.10
2023-02-03T18:06:40.343Z,2.40
2023-02-03T18:09:43.212Z,1.90
2023-02-03T18:12:49.132Z,1.50
2023-02-03T18:15:53.378Z,1.40
2023-02-03T18:18:57.304Z,1.87
2023-02-03T18:22:00.795Z,1.80
2023-02-03T18:25:03.551Z,2.30
2023-02-03T18:28:06.334Z,3.50
2023-02-03T18:31:12.850Z,1.90
2023-02-03T18:34:16.969Z,2.10
2023-02-03T18:37:19.825Z,1.70
2023-02-03T18:40:22.529Z,2.00
2023-02-03T18:43:25.242Z,1.70
2023-02-03T18:46:31.255Z,1.60
2023-02-03T18:49:36.538Z,1.70
2023-02-03T18:52:46.570Z,1.80
2023-02-03T18:55:49.359Z,2.10
2023-02-03T18:58:55.161Z,1.80
2023-02-03T19:01:59.222Z,1.70
2023-02-03T19:05:04.360Z,2.70
2023-02-03T19:08:10.209Z,2.20
2023-02-03T19:11:14.264Z,1.50
2023-02-03T19:14:20.268Z,2.10
2023-02-03T19:17:27.476Z,1.67
2023-02-03T19:20:33.837Z,1.63
2023-02-03T19:23:36.557Z,1.33
2023-02-03T19:26:42.557Z,1.47
2023-02-03T19:29:45.264Z,1.20
2023-02-03T19:32:51.826Z,0.93
2023-02-03T19:35:54.651Z,2.13
2023-02-03T19:38:57.880Z,1.57
2023-02-03T19:42:00.949Z,2.43
2023-02-03T19:45:05.029Z,2.00
2023-02-03T19:48:09.190Z,1.87
2023-02-03T19:51:14.063Z,1.60
2023-02-03T19:54:17.636Z,1.60
2023-02-03T19:57:26.004Z,2.70
2023-02-03T20:00:29.733Z,2.30
2023-02-03T20:03:34.236Z,2.50
2023-02-03T20:06:38.287Z,2.23
2023-02-03T20:09:43.181Z,2.20
2023-02-03T20:12:51.146Z,2.37
2023-02-03T20:15:56.712Z,2.47
2023-02-03T20:19:01.964Z,1.63
2023-02-03T20:22:04.671Z,3.87
2023-02-03T20:25:08.519Z,2.10
2023-02-03T20:28:11.326Z,2.73
2023-02-03T20:31:14.496Z,2.17
2023-02-03T20:34:22.924Z,2.43
2023-02-03T20:37:32.802Z,2.80
2023-02-03T20:40:37.849Z,2.10
2023-02-03T20:43:43.049Z,2.50
2023-02-03T20:46:46.401Z,2.40
2023-02-03T20:50:07.950Z,2.47
2023-02-03T20:53:14.337Z,2.17
2023-02-03T20:56:21.849Z,2.40
2023-02-03T20:59:25.463Z,2.10
2023-02-03T21:02:55.009Z,2.33
2023-02-03T21:05:58.581Z,1.93
2023-02-03T21:09:09.721Z,2.57
2023-02-03T21:12:13.739Z,2.40
2023-02-03T21:15:29.695Z,2.60
2023-02-03T21:18:37.960Z,1.60
2023-02-03T21:21:43.953Z,2.50
2023-02-03T21:24:50.902Z,2.30
2023-02-03T21:28:01.624Z,2.83
2023-02-03T21:31:12.546Z,2.77
2023-02-03T21:34:25.718Z,2.10
2023-02-03T21:37:47.753Z,2.20
2023-02-03T21:40:55.692Z,2.47
2023-02-03T21:44:01.716Z,2.33
2023-02-03T21:47:17.393Z,2.30
2023-02-03T21:50:40.499Z,2.97
2023-02-03T21:53:50.898Z,2.53
2023-02-03T21:56:54.175Z,2.70
2023-02-03T21:59:56.880Z,2.47
2023-02-03T22:03:02.724Z,2.27
2023-02-03T22:06:18.632Z,3.00
2023-02-03T22:09:24.240Z,2.97
2023-02-03T22:12:27.466Z,2.03
2023-02-03T22:15:31.277Z,2.70
2023-02-03T22:18:34.149Z,2.90
2023-02-03T22:21:37.573Z,2.17
2023-02-03T22:24:44.617Z,2.63
2023-02-03T22:27:47.327Z,2.47
2023-02-03T22:30:56.100Z,2.57
2023-02-03T22:34:09.319Z,2.83
2023-02-03T22:37:12.273Z,2.97
2023-02-03T22:40:16.799Z,3.03
2023-02-03T22:43:19.693Z,2.87
2023-02-03T22:46:22.552Z,3.37
2023-02-03T22:49:25.413Z,2.70
2023-02-03T22:52:28.225Z,3.67
2023-02-03T22:55:33.057Z,2.63
2023-02-03T22:58:35.896Z,2.80
2023-02-03T23:01:41.546Z,2.97
2023-02-03T23:04:44.427Z,2.87
2023-02-03T23:07:48.240Z,2.70
2023-02-03T23:10:52.445Z,2.93
2023-02-03T23:13:55.344Z,2.60
2023-02-03T23:16:58.205Z,3.50
2023-02-03T23:20:01.053Z,2.87
2023-02-03T23:23:03.908Z,3.00
2023-02-03T23:26:08.204Z,3.53
2023-02-03T23:29:10.973Z,3.50
2023-02-03T23:32:13.813Z,2.73
2023-02-03T23:35:34.624Z,3.53
2023-02-03T23:38:37.447Z,3.10
2023-02-03T23:41:41.566Z,2.80
2023-02-03T23:44:44.382Z,2.70
2023-02-03T23:47:47.720Z,2.53
2023-02-03T23:50:50.542Z,1.80
2023-02-03T23:53:53.262Z,2.57
2023-02-03T23:56:57.598Z,3.23
